ラグフラ【オリジナルTee 】入荷いたしました!

LUXURY FLIGHT

03-6423-7371

羽田本店:東京都大田区羽田5-11-1
営業時間:10:00~20:00
定休日:毎週 月曜日
セントレア店:愛知県常滑市セントレア1-1
営業時間:10:00~20:00 年中無休

lv

ラグフラ【オリジナルTee 】入荷いたしました!

STAFF BLOG

2019/06/12 ラグフラ【オリジナルTee 】入荷いたしました!

きょんばんはーーーーー

 

本日の羽田界隈のMETAR…

RJTT 121030Z 11011KT 9999 VCSH FEW025 BKN080 19/15 Q1009 NOSIG

RMK 1CU025 7AC080 A2982

 

 

でございやす!!

 

 

 

さてさて、

 

 

今年もこの時期がやって参りましたーーーーーーー

 

 

 

 

img_1670

 

弊社のオリジナルTeeシャツでございます。

 

 

 

 

 

 

img_1685

 

弊社には専属モデルを雇う資金力はございませんので、スタッフが兼務しております。(笑)

精一杯カッコつけて背伸びをした後ろ姿をお楽しみください。

この背中の奥に史上最大のドヤ顔があることは言うまでもありません。笑

 

 

各色・サイズ取り揃えておりますが、既に常連様のまとめ買い等が発生しております(笑)

 

気になってくださった方は、ぜひとも、お早めにご連絡いただけましたら幸いでーーーす

 

 

 

 

 

 

いつもブログを読んでいただき本当にありがとうございます。

「感謝」

TOP